createdAt,value
2023-03-13T00:02:47.265Z,9.83
2023-03-13T00:06:49.084Z,9.17
2023-03-13T00:10:50.847Z,11.07
2023-03-13T00:14:52.642Z,10.73
2023-03-13T00:18:54.937Z,9.37
2023-03-13T00:22:56.941Z,6.17
2023-03-13T00:27:03.271Z,11.10
2023-03-13T00:31:16.871Z,7.50
2023-03-13T00:35:19.239Z,7.90
2023-03-13T00:39:21.176Z,7.63
2023-03-13T00:43:23.001Z,10.20
2023-03-13T00:47:25.135Z,8.63
2023-03-13T00:51:27.609Z,13.63
2023-03-13T00:55:29.522Z,11.20
2023-03-13T00:59:31.242Z,9.17
2023-03-13T01:03:33.086Z,8.30
2023-03-13T01:07:34.894Z,9.43
2023-03-13T01:11:38.680Z,9.27
2023-03-13T01:15:40.550Z,9.47
2023-03-13T01:19:42.288Z,8.10
2023-03-13T01:23:44.092Z,13.07
2023-03-13T01:27:45.836Z,9.77
2023-03-13T01:31:47.829Z,9.23
2023-03-13T01:35:50.133Z,9.93
2023-03-13T01:39:52.011Z,8.60
2023-03-13T01:43:55.593Z,7.67
2023-03-13T01:47:57.504Z,9.43
2023-03-13T01:52:03.947Z,10.77
2023-03-13T01:56:07.697Z,11.27
2023-03-13T02:00:30.840Z,12.63
2023-03-13T02:04:37.574Z,9.90
2023-03-13T02:08:44.664Z,9.33
2023-03-13T02:12:46.414Z,8.00
2023-03-13T02:16:51.963Z,8.03
2023-03-13T02:20:56.681Z,8.70
2023-03-13T02:25:35.807Z,8.07
2023-03-13T02:29:37.677Z,6.57
2023-03-13T02:33:40.649Z,8.03
2023-03-13T02:37:42.996Z,8.20
2023-03-13T02:41:44.782Z,6.60
2023-03-13T02:46:10.953Z,8.80
2023-03-13T02:50:13.283Z,7.73
2023-03-13T02:54:20.463Z,10.33
2023-03-13T02:58:25.623Z,7.60
2023-03-13T03:02:27.644Z,8.57
2023-03-13T03:06:35.766Z,12.83
2023-03-13T03:10:43.779Z,14.90
2023-03-13T03:14:51.735Z,10.37
2023-03-13T03:18:53.529Z,10.10
2023-03-13T03:23:01.861Z,9.17
2023-03-13T03:27:07.108Z,8.00
2023-03-13T03:31:13.741Z,9.87
2023-03-13T03:35:15.691Z,10.47
2023-03-13T03:39:17.444Z,7.97
2023-03-13T03:43:19.240Z,12.63
2023-03-13T03:47:21.045Z,8.50
2023-03-13T03:51:23.026Z,7.77
2023-03-13T03:55:24.895Z,11.23
2023-03-13T03:59:26.684Z,8.27
2023-03-13T04:03:28.523Z,6.63
2023-03-13T04:07:30.447Z,13.40
2023-03-13T04:11:32.186Z,10.10
2023-03-13T04:15:33.976Z,11.60
2023-03-13T04:19:35.754Z,6.60
2023-03-13T04:23:37.551Z,7.93
2023-03-13T04:27:39.595Z,10.57
2023-03-13T04:31:41.439Z,7.47
2023-03-13T04:35:43.922Z,8.67
2023-03-13T04:39:45.772Z,11.20
2023-03-13T04:43:47.544Z,8.80
2023-03-13T04:47:49.428Z,8.83
2023-03-13T04:51:51.305Z,7.07
2023-03-13T04:55:53.167Z,9.07
2023-03-13T04:59:55.103Z,12.77
2023-03-13T05:03:56.914Z,9.60
2023-03-13T05:07:58.704Z,11.37
2023-03-13T05:12:00.623Z,8.97
2023-03-13T05:16:03.820Z,11.57
2023-03-13T05:20:08.266Z,9.57
2023-03-13T05:24:10.088Z,8.57
2023-03-13T05:28:12.097Z,8.13
2023-03-13T05:32:13.903Z,7.90
2023-03-13T05:36:15.803Z,8.57
2023-03-13T05:40:17.843Z,8.93
2023-03-13T05:44:19.809Z,7.87
2023-03-13T05:48:21.634Z,10.57
2023-03-13T05:52:23.463Z,9.23
2023-03-13T05:56:25.249Z,8.67
2023-03-13T06:00:31.054Z,8.90
2023-03-13T06:04:38.056Z,8.40
2023-03-13T06:08:40.224Z,7.00
2023-03-13T06:12:42.358Z,8.97
2023-03-13T06:16:46.878Z,9.33
2023-03-13T06:20:49.900Z,6.00
2023-03-13T06:24:52.116Z,8.50
2023-03-13T06:28:53.985Z,9.57
2023-03-13T06:32:56.168Z,10.17
2023-03-13T06:36:58.802Z,8.67
2023-03-13T06:41:00.722Z,7.57
2023-03-13T06:45:03.498Z,5.93
2023-03-13T06:49:06.130Z,7.90
2023-03-13T06:53:08.059Z,4.33
2023-03-13T06:57:09.805Z,5.20
2023-03-13T07:01:16.023Z,7.23
2023-03-13T07:05:17.935Z,6.37
2023-03-13T07:09:20.170Z,8.07
2023-03-13T07:13:22.297Z,6.87
2023-03-13T07:17:24.141Z,5.70
2023-03-13T07:21:31.982Z,5.47
2023-03-13T07:25:33.757Z,7.87
2023-03-13T07:29:35.571Z,6.37
2023-03-13T07:33:37.692Z,4.97
2023-03-13T07:37:39.660Z,6.47
2023-03-13T07:41:42.315Z,7.13
2023-03-13T07:45:55.262Z,6.17
2023-03-13T07:49:57.045Z,3.80
2023-03-13T07:53:58.821Z,7.17
2023-03-13T07:58:00.688Z,4.80
2023-03-13T08:02:05.378Z,5.03
2023-03-13T08:06:12.818Z,4.33
2023-03-13T08:10:14.655Z,4.93
2023-03-13T08:14:16.621Z,5.17
2023-03-13T08:18:18.470Z,3.93
2023-03-13T08:22:20.238Z,5.80
2023-03-13T08:26:23.331Z,3.47
2023-03-13T08:30:25.124Z,5.43
2023-03-13T08:34:26.916Z,5.77
2023-03-13T08:38:28.664Z,3.53
2023-03-13T08:42:30.494Z,4.97
2023-03-13T08:46:43.097Z,5.47
2023-03-13T08:50:44.907Z,6.50
2023-03-13T08:54:50.844Z,6.00
2023-03-13T08:58:54.330Z,4.80
2023-03-13T09:02:58.261Z,4.23
2023-03-13T09:07:00.162Z,5.47
2023-03-13T09:11:04.714Z,4.10
2023-03-13T09:15:07.633Z,4.47
2023-03-13T09:19:09.452Z,5.57
2023-03-13T09:23:11.289Z,5.00
2023-03-13T09:27:13.132Z,3.07
2023-03-13T09:31:30.142Z,2.00
2023-03-13T09:35:35.192Z,2.97
2023-03-13T09:39:37.420Z,2.73
2023-03-13T09:44:09.596Z,2.50
2023-03-13T09:48:29.617Z,2.13
2023-03-13T09:52:36.464Z,1.20
2023-03-13T09:57:04.108Z,4.30
2023-03-13T10:01:06.180Z,1.47
2023-03-13T10:05:22.992Z,1.83
2023-03-13T10:09:42.195Z,1.43
2023-03-13T10:14:10.777Z,1.40
2023-03-13T10:18:23.674Z,2.10
2023-03-13T10:22:30.385Z,1.70
2023-03-13T10:26:48.619Z,1.97
2023-03-13T10:30:55.171Z,1.80
2023-03-13T10:35:04.080Z,1.90
2023-03-13T10:39:05.900Z,1.23
2023-03-13T10:43:22.404Z,1.40
2023-03-13T10:47:24.490Z,1.00
2023-03-13T10:51:40.675Z,0.77
2023-03-13T10:55:43.317Z,2.17
2023-03-13T10:59:52.074Z,1.20
2023-03-13T11:03:55.977Z,2.03
2023-03-13T11:07:58.073Z,1.50
2023-03-13T11:12:17.527Z,1.93
2023-03-13T11:16:28.895Z,1.70
2023-03-13T11:20:38.789Z,1.50
2023-03-13T11:25:11.574Z,1.03
2023-03-13T11:29:38.805Z,0.83
2023-03-13T11:34:04.774Z,2.07
2023-03-13T11:38:36.550Z,1.77
2023-03-13T11:42:46.706Z,1.10
2023-03-13T11:47:24.908Z,1.40
2023-03-13T11:52:09.969Z,1.80
2023-03-13T11:56:21.992Z,1.53
2023-03-13T12:00:47.911Z,2.10
2023-03-13T12:05:03.518Z,1.47
2023-03-13T12:09:14.836Z,1.60
2023-03-13T12:13:38.844Z,1.60
2023-03-13T12:18:12.632Z,1.37
2023-03-13T12:22:50.981Z,1.47
2023-03-13T12:27:15.886Z,1.10
2023-03-13T12:31:39.585Z,1.40
2023-03-13T12:35:57.248Z,1.43
2023-03-13T12:40:31.830Z,1.10
2023-03-13T12:44:33.966Z,1.53
2023-03-13T12:49:13.639Z,1.87
2023-03-13T12:53:26.204Z,0.70
2023-03-13T12:58:15.377Z,10.83
2023-03-13T13:02:21.339Z,0.87
2023-03-13T13:06:23.479Z,1.40
2023-03-13T13:10:26.388Z,3.03
2023-03-13T13:14:28.182Z,1.30
2023-03-13T13:18:31.635Z,1.30
2023-03-13T13:22:42.268Z,0.80
2023-03-13T13:26:49.087Z,1.90
2023-03-13T13:30:54.537Z,1.30
2023-03-13T13:35:36.552Z,2.87
2023-03-13T13:40:10.108Z,1.00
2023-03-13T13:44:26.889Z,1.53
2023-03-13T13:48:35.902Z,2.50
2023-03-13T13:52:41.704Z,1.30
2023-03-13T13:56:48.198Z,1.13
2023-03-13T14:00:59.594Z,1.73
2023-03-13T14:05:09.007Z,1.40
2023-03-13T14:09:30.352Z,2.10
2023-03-13T14:13:32.397Z,2.23
2023-03-13T14:17:51.109Z,1.37
2023-03-13T14:22:00.190Z,1.90
2023-03-13T14:26:27.172Z,1.70
2023-03-13T14:30:29.315Z,2.60
2023-03-13T14:34:32.805Z,2.30
2023-03-13T14:38:34.944Z,3.57
2023-03-13T14:42:44.027Z,2.50
2023-03-13T14:46:46.122Z,1.83
2023-03-13T14:50:49.234Z,2.17
2023-03-13T14:55:06.564Z,1.57
2023-03-13T14:59:22.886Z,1.57
2023-03-13T15:03:30.297Z,2.10
2023-03-13T15:07:48.422Z,1.90
2023-03-13T15:12:00.826Z,2.03
2023-03-13T15:16:04.139Z,2.50
2023-03-13T15:20:09.856Z,1.00
2023-03-13T15:24:16.201Z,1.37
2023-03-13T15:28:23.587Z,2.33
2023-03-13T15:32:40.286Z,1.57
2023-03-13T15:36:42.686Z,2.50
2023-03-13T15:40:47.946Z,1.83
2023-03-13T15:44:50.101Z,2.20
2023-03-13T15:48:52.682Z,2.63
2023-03-13T15:52:58.264Z,1.60
2023-03-13T15:57:00.299Z,1.90
2023-03-13T16:01:08.415Z,2.10
2023-03-13T16:05:15.294Z,2.53
2023-03-13T16:09:20.075Z,1.23
2023-03-13T16:13:24.522Z,1.90
2023-03-13T16:17:28.504Z,1.30
2023-03-13T16:21:33.409Z,1.33
2023-03-13T16:25:36.074Z,2.30
2023-03-13T16:29:38.452Z,1.83
2023-03-13T16:33:40.318Z,0.77
2023-03-13T16:37:42.238Z,1.47
2023-03-13T16:41:44.123Z,1.60
2023-03-13T16:45:49.273Z,1.50
2023-03-13T16:49:54.400Z,1.20
2023-03-13T16:53:59.775Z,1.10
2023-03-13T16:58:04.884Z,2.07
2023-03-13T17:02:18.318Z,1.97
2023-03-13T17:06:26.465Z,3.40
2023-03-13T17:10:34.925Z,2.93
2023-03-13T17:14:39.071Z,2.50
2023-03-13T17:18:42.020Z,2.13
2023-03-13T17:22:47.703Z,2.17
2023-03-13T17:26:49.670Z,1.60
2023-03-13T17:30:51.535Z,1.60
2023-03-13T17:34:56.325Z,3.60
2023-03-13T17:39:01.418Z,1.80
2023-03-13T17:43:03.258Z,2.63
2023-03-13T17:47:15.675Z,2.87
2023-03-13T17:51:23.593Z,3.57
2023-03-13T17:55:28.127Z,2.27
2023-03-13T17:59:30.580Z,2.53
2023-03-13T18:03:32.648Z,2.40
2023-03-13T18:07:39.060Z,2.37
2023-03-13T18:11:41.483Z,2.70
2023-03-13T18:15:43.384Z,2.60
2023-03-13T18:19:46.161Z,4.17
2023-03-13T18:23:51.442Z,2.77
2023-03-13T18:27:55.571Z,2.80
2023-03-13T18:32:02.861Z,2.90
2023-03-13T18:36:19.561Z,2.63
2023-03-13T18:40:27.050Z,2.60
2023-03-13T18:44:33.554Z,3.20
2023-03-13T18:48:35.600Z,3.23
2023-03-13T18:52:40.642Z,3.07
2023-03-13T18:56:46.177Z,2.97
2023-03-13T19:00:48.195Z,1.93
2023-03-13T19:04:53.135Z,3.07
2023-03-13T19:09:41.539Z,3.57
2023-03-13T19:13:39.756Z,2.60
2023-03-13T19:17:41.644Z,2.77
2023-03-13T19:21:44.022Z,2.07
2023-03-13T19:25:47.032Z,3.27
2023-03-13T19:29:49.226Z,2.53
2023-03-13T19:33:54.881Z,3.63
2023-03-13T19:37:56.788Z,3.20
2023-03-13T19:41:58.859Z,2.73
2023-03-13T19:46:26.399Z,3.17
2023-03-13T19:50:28.308Z,2.70
2023-03-13T19:54:30.131Z,3.70
2023-03-13T19:58:31.951Z,4.13
2023-03-13T20:02:33.833Z,3.10
2023-03-13T20:06:36.115Z,3.30
2023-03-13T20:10:38.144Z,2.20
2023-03-13T20:14:40.578Z,2.77
2023-03-13T20:18:50.006Z,1.93
2023-03-13T20:22:54.230Z,1.37
2023-03-13T20:26:56.778Z,1.10
2023-03-13T20:31:03.255Z,1.80
2023-03-13T20:35:10.637Z,0.87
2023-03-13T20:39:12.722Z,1.53
2023-03-13T20:43:16.664Z,1.13
2023-03-13T20:47:18.442Z,0.93
2023-03-13T20:51:20.313Z,1.43
2023-03-13T20:55:22.315Z,2.30
2023-03-13T20:59:24.549Z,0.97
2023-03-13T21:03:26.962Z,1.10
2023-03-13T21:07:28.786Z,0.73
2023-03-13T21:11:30.584Z,0.70
2023-03-13T21:15:32.476Z,3.03
2023-03-13T21:19:34.565Z,0.90
2023-03-13T21:23:39.493Z,0.70
2023-03-13T21:27:43.816Z,1.37
2023-03-13T21:31:45.891Z,2.33
2023-03-13T21:35:49.148Z,1.00
2023-03-13T21:39:52.259Z,0.93
2023-03-13T21:43:55.825Z,0.53
2023-03-13T21:47:58.763Z,1.33
2023-03-13T21:52:00.575Z,0.80
2023-03-13T21:56:05.396Z,0.60
2023-03-13T22:00:10.776Z,1.30
2023-03-13T22:04:12.582Z,1.40
2023-03-13T22:08:14.601Z,1.20
2023-03-13T22:12:18.268Z,2.00
2023-03-13T22:16:21.188Z,1.87
2023-03-13T22:20:23.178Z,0.70
2023-03-13T22:24:25.620Z,1.13
2023-03-13T22:28:27.766Z,1.03
2023-03-13T22:32:30.299Z,1.87
2023-03-13T22:36:32.937Z,1.57
2023-03-13T22:40:35.401Z,1.07
2023-03-13T22:44:37.193Z,2.37
2023-03-13T22:48:40.096Z,1.27
2023-03-13T22:52:42.115Z,1.07
2023-03-13T22:56:44.078Z,1.17
2023-03-13T23:00:46.092Z,1.10
2023-03-13T23:04:48.006Z,1.27
2023-03-13T23:08:50.518Z,1.17
2023-03-13T23:12:52.361Z,1.70
2023-03-13T23:16:54.144Z,2.17
2023-03-13T23:20:55.945Z,1.53
2023-03-13T23:24:58.008Z,1.17
2023-03-13T23:28:59.876Z,2.03
2023-03-13T23:33:02.007Z,1.90
2023-03-13T23:37:03.828Z,2.40
2023-03-13T23:41:13.317Z,0.80
2023-03-13T23:45:15.222Z,0.90
2023-03-13T23:49:17.054Z,1.00
2023-03-13T23:53:18.983Z,1.23
2023-03-13T23:57:20.768Z,1.60
